createdAt,value
2018-08-23T00:01:30.311Z,44.30
2018-08-23T00:04:03.551Z,44.30
2018-08-23T00:06:31.757Z,44.30
2018-08-23T00:08:59.949Z,44.50
2018-08-23T00:11:32.054Z,44.70
2018-08-23T00:14:00.316Z,45.00
2018-08-23T00:16:38.907Z,45.00
2018-08-23T00:19:07.132Z,44.80
2018-08-23T00:21:42.404Z,44.90
2018-08-23T00:24:18.660Z,44.70
2018-08-23T00:26:48.985Z,44.50
2018-08-23T00:29:22.489Z,43.80
2018-08-23T00:31:52.141Z,43.70
2018-08-23T00:34:21.052Z,43.50
2018-08-23T00:36:49.320Z,43.50
2018-08-23T00:39:17.517Z,43.20
2018-08-23T00:41:49.996Z,43.10
2018-08-23T00:44:18.614Z,43.30
2018-08-23T00:46:46.859Z,43.40
2018-08-23T00:49:15.824Z,43.40
2018-08-23T00:51:45.431Z,43.40
2018-08-23T00:54:13.727Z,43.40
2018-08-23T00:56:41.972Z,43.60
2018-08-23T00:59:11.718Z,43.60
2018-08-23T01:01:40.781Z,43.60
2018-08-23T01:04:08.999Z,43.80
2018-08-23T01:06:42.395Z,44.00
2018-08-23T01:09:11.762Z,44.20
2018-08-23T01:11:40.012Z,44.30
2018-08-23T01:14:08.586Z,44.50
2018-08-23T01:16:36.795Z,44.50
2018-08-23T01:19:10.325Z,44.60
2018-08-23T01:21:45.183Z,44.60
2018-08-23T01:24:13.442Z,44.60
2018-08-23T01:26:41.708Z,44.70
2018-08-23T01:29:23.020Z,44.50
2018-08-23T01:31:51.244Z,44.70
2018-08-23T01:34:19.456Z,44.60
2018-08-23T01:36:47.692Z,45.30
2018-08-23T01:39:15.916Z,44.60
2018-08-23T01:41:44.153Z,44.70
2018-08-23T01:44:12.394Z,44.50
2018-08-23T01:46:44.628Z,44.40
2018-08-23T01:49:12.834Z,44.30
2018-08-23T01:51:41.088Z,44.30
2018-08-23T01:54:09.375Z,44.50
2018-08-23T01:56:37.593Z,44.50
2018-08-23T01:59:05.791Z,44.50
2018-08-23T02:01:34.095Z,44.50
2018-08-23T02:04:04.513Z,44.70
2018-08-23T02:06:33.621Z,45.20
2018-08-23T02:09:01.880Z,45.20
2018-08-23T02:11:30.114Z,45.40
2018-08-23T02:13:58.378Z,45.80
2018-08-23T02:16:26.659Z,46.20
2018-08-23T02:18:54.900Z,46.50
2018-08-23T02:21:23.215Z,46.80
2018-08-23T02:23:52.817Z,47.20
2018-08-23T02:26:21.012Z,47.40
2018-08-23T02:28:50.141Z,47.50
2018-08-23T02:31:18.483Z,47.80
2018-08-23T02:33:46.744Z,48.00
2018-08-23T02:36:15.987Z,47.90
2018-08-23T02:38:45.265Z,47.90
2018-08-23T02:41:13.464Z,48.10
2018-08-23T02:43:41.702Z,48.20
2018-08-23T02:46:09.953Z,48.40
2018-08-23T02:48:38.146Z,48.50
2018-08-23T02:51:06.581Z,48.70
2018-08-23T02:53:36.531Z,49.00
2018-08-23T02:56:06.617Z,49.20
2018-08-23T02:58:58.938Z,49.30
2018-08-23T03:01:32.975Z,49.40
2018-08-23T03:04:08.083Z,49.70
2018-08-23T03:07:12.660Z,49.90
2018-08-23T03:09:42.903Z,50.20
2018-08-23T03:12:15.453Z,50.60
2018-08-23T03:14:43.730Z,50.60
2018-08-23T03:17:16.638Z,50.50
2018-08-23T03:20:00.823Z,50.50
2018-08-23T03:22:29.915Z,50.30
2018-08-23T03:24:59.419Z,50.40
2018-08-23T03:27:28.157Z,50.70
2018-08-23T03:29:56.445Z,51.10
2018-08-23T03:32:24.707Z,51.60
2018-08-23T03:34:52.986Z,51.80
2018-08-23T03:37:21.216Z,51.70
2018-08-23T03:39:49.496Z,51.70
2018-08-23T03:42:17.695Z,51.80
2018-08-23T03:44:46.129Z,52.20
2018-08-23T03:47:14.467Z,52.60
2018-08-23T03:49:46.435Z,52.60
2018-08-23T03:52:16.358Z,52.40
2018-08-23T03:54:57.412Z,52.30
2018-08-23T03:57:30.919Z,52.20
2018-08-23T03:59:59.290Z,51.90
2018-08-23T04:02:27.682Z,52.00
2018-08-23T04:05:31.370Z,52.10
2018-08-23T04:07:59.611Z,52.00
2018-08-23T04:10:27.921Z,52.10
2018-08-23T04:12:56.212Z,51.90
2018-08-23T04:15:31.508Z,51.80
2018-08-23T04:18:04.877Z,51.80
2018-08-23T04:20:33.127Z,51.60
2018-08-23T04:23:01.440Z,51.30
2018-08-23T04:25:29.551Z,51.10
2018-08-23T04:27:57.826Z,51.10
2018-08-23T04:30:26.038Z,50.90
2018-08-23T04:32:54.257Z,50.80
2018-08-23T04:35:24.672Z,50.90
2018-08-23T04:37:59.683Z,50.70
2018-08-23T04:40:27.905Z,50.70
2018-08-23T04:42:56.116Z,50.70
2018-08-23T04:45:25.275Z,50.60
2018-08-23T04:47:59.063Z,50.50
2018-08-23T04:50:27.531Z,50.30
2018-08-23T04:52:55.728Z,50.30
2018-08-23T04:55:24.605Z,50.00
2018-08-23T04:58:00.426Z,50.10
2018-08-23T05:00:29.408Z,50.00
2018-08-23T05:02:57.614Z,50.00
2018-08-23T05:05:26.124Z,49.80
2018-08-23T05:07:54.347Z,49.80
2018-08-23T05:10:22.562Z,49.60
2018-08-23T05:12:50.747Z,49.70
2018-08-23T05:15:19.009Z,49.50
2018-08-23T05:17:47.271Z,49.60
2018-08-23T05:20:15.502Z,49.30
2018-08-23T05:22:52.537Z,49.40
2018-08-23T05:25:23.079Z,48.80
2018-08-23T05:28:23.282Z,48.50
2018-08-23T05:30:51.486Z,48.10
2018-08-23T05:33:21.239Z,47.80
2018-08-23T05:35:49.512Z,47.70
2018-08-23T05:38:18.393Z,47.50
2018-08-23T05:40:53.453Z,47.10
2018-08-23T05:43:22.117Z,46.70
2018-08-23T05:45:51.678Z,46.80
2018-08-23T05:48:36.456Z,46.30
2018-08-23T05:51:09.763Z,46.10
2018-08-23T05:53:43.592Z,45.70
2018-08-23T05:56:11.809Z,45.60
2018-08-23T05:58:40.009Z,45.10
2018-08-23T06:01:08.203Z,44.80
2018-08-23T06:03:37.907Z,44.20
2018-08-23T06:06:06.146Z,44.50
2018-08-23T06:08:34.400Z,44.00
2018-08-23T06:11:09.826Z,43.70
2018-08-23T06:13:38.188Z,42.50
2018-08-23T06:16:06.578Z,42.00
2018-08-23T06:18:34.847Z,41.70
2018-08-23T06:21:03.080Z,41.60
2018-08-23T06:23:35.046Z,40.50
2018-08-23T06:26:03.291Z,39.60
2018-08-23T06:28:31.587Z,39.10
2018-08-23T06:31:02.753Z,38.30
2018-08-23T06:33:38.979Z,37.70
2018-08-23T06:36:08.291Z,36.90
2018-08-23T06:38:37.350Z,36.00
2018-08-23T06:41:11.999Z,35.60
2018-08-23T06:43:40.440Z,35.30
2018-08-23T06:46:08.749Z,34.20
2018-08-23T06:48:36.917Z,34.30
2018-08-23T06:51:09.573Z,34.00
2018-08-23T06:53:45.270Z,33.50
2018-08-23T06:56:13.563Z,32.50
2018-08-23T06:58:41.805Z,31.70
2018-08-23T07:01:16.354Z,31.00
2018-08-23T07:03:50.948Z,30.70
2018-08-23T07:06:19.871Z,30.00
2018-08-23T07:08:48.198Z,29.80
2018-08-23T07:11:22.247Z,29.30
2018-08-23T07:13:56.816Z,29.00
2018-08-23T07:16:25.410Z,28.70
2018-08-23T07:18:53.674Z,28.50
2018-08-23T07:21:21.994Z,28.40
2018-08-23T07:23:50.240Z,28.10
2018-08-23T07:26:18.470Z,28.20
2018-08-23T07:28:46.697Z,28.00
2018-08-23T07:31:14.885Z,27.80
2018-08-23T07:33:45.131Z,28.40
2018-08-23T07:36:31.495Z,27.50
2018-08-23T07:38:59.764Z,27.10
2018-08-23T07:41:28.087Z,26.90
2018-08-23T07:43:56.388Z,27.10
2018-08-23T07:46:25.192Z,27.10
2018-08-23T07:48:53.468Z,26.80
2018-08-23T07:51:25.073Z,26.50
2018-08-23T07:53:54.711Z,26.10
2018-08-23T07:56:26.057Z,25.70
2018-08-23T07:58:56.081Z,25.50
2018-08-23T08:01:27.955Z,25.50
2018-08-23T08:03:57.052Z,25.40
2018-08-23T08:06:26.413Z,25.30
2018-08-23T08:08:56.423Z,25.30
2018-08-23T08:11:24.654Z,25.70
2018-08-23T08:13:58.698Z,25.80
2018-08-23T08:16:32.594Z,26.20
2018-08-23T08:19:00.953Z,26.60
2018-08-23T08:21:29.298Z,26.90
2018-08-23T08:23:58.762Z,26.90
2018-08-23T08:26:29.719Z,26.50
2018-08-23T08:28:57.970Z,26.40
2018-08-23T08:31:26.229Z,26.30
2018-08-23T08:33:57.464Z,26.50
2018-08-23T08:36:28.915Z,26.60
2018-08-23T08:38:57.125Z,26.40
2018-08-23T08:41:25.519Z,26.70
2018-08-23T08:43:53.766Z,26.80
2018-08-23T08:46:22.047Z,27.00
2018-08-23T08:48:50.243Z,26.90
2018-08-23T08:51:23.567Z,26.80
2018-08-23T08:53:53.328Z,26.60
2018-08-23T08:56:23.262Z,26.40
2018-08-23T08:58:52.080Z,26.70
2018-08-23T09:01:20.740Z,26.20
2018-08-23T09:03:48.926Z,26.00
2018-08-23T09:06:21.967Z,26.10
2018-08-23T09:08:50.162Z,26.40
2018-08-23T09:11:21.489Z,27.00
2018-08-23T09:13:50.152Z,26.90
2018-08-23T09:16:21.606Z,26.70
2018-08-23T09:19:02.603Z,26.60
2018-08-23T09:21:31.502Z,26.10
2018-08-23T09:24:12.769Z,26.50
2018-08-23T09:26:41.065Z,25.60
2018-08-23T09:29:20.856Z,26.20
2018-08-23T09:31:49.051Z,27.30
2018-08-23T09:34:17.321Z,26.50
2018-08-23T09:36:45.548Z,27.00
2018-08-23T09:39:13.745Z,27.10
2018-08-23T09:41:42.003Z,26.50
2018-08-23T09:44:10.367Z,26.40
2018-08-23T09:46:45.961Z,26.10
2018-08-23T09:49:14.594Z,26.80
2018-08-23T09:51:42.891Z,26.50
2018-08-23T09:54:14.215Z,26.00
2018-08-23T09:56:42.513Z,26.60
2018-08-23T09:59:10.675Z,27.40
2018-08-23T10:01:44.275Z,27.10
2018-08-23T10:04:17.939Z,27.30
2018-08-23T10:06:51.594Z,27.20
2018-08-23T10:09:22.939Z,27.30
2018-08-23T10:11:56.534Z,27.60
2018-08-23T10:14:30.213Z,27.30
2018-08-23T10:18:02.383Z,27.60
2018-08-23T10:20:35.895Z,27.70
2018-08-23T10:23:09.346Z,27.50
2018-08-23T10:25:43.782Z,27.90
2018-08-23T10:28:15.197Z,27.60
2018-08-23T10:30:43.743Z,25.90
2018-08-23T10:33:11.955Z,25.60
2018-08-23T10:35:45.631Z,25.20
2018-08-23T10:38:15.454Z,25.40
2018-08-23T10:40:44.576Z,25.20
2018-08-23T10:43:13.404Z,25.80
2018-08-23T10:45:41.908Z,24.70
2018-08-23T10:48:17.466Z,24.70
2018-08-23T10:50:46.823Z,24.80
2018-08-23T10:53:15.302Z,25.70
2018-08-23T10:55:44.062Z,26.20
2018-08-23T10:58:12.322Z,25.60
2018-08-23T11:00:40.783Z,25.80
2018-08-23T11:03:09.027Z,26.10
2018-08-23T11:05:37.262Z,26.00
2018-08-23T11:08:10.962Z,26.10
2018-08-23T11:10:44.558Z,26.10
2018-08-23T11:13:18.239Z,26.10
2018-08-23T11:15:46.488Z,26.60
2018-08-23T11:18:20.277Z,26.60
2018-08-23T11:20:49.751Z,26.20
2018-08-23T11:23:19.228Z,26.20
2018-08-23T11:25:47.437Z,26.50
2018-08-23T11:28:21.564Z,26.70
2018-08-23T11:30:51.192Z,26.90
2018-08-23T11:33:19.418Z,27.00
2018-08-23T11:35:47.649Z,27.30
2018-08-23T11:38:15.840Z,27.60
2018-08-23T11:40:44.262Z,27.70
2018-08-23T11:43:12.515Z,27.30
2018-08-23T11:45:40.790Z,27.90
2018-08-23T11:48:09.038Z,28.50
2018-08-23T11:50:37.246Z,28.30
2018-08-23T11:53:05.755Z,28.40
2018-08-23T11:55:33.923Z,28.30
2018-08-23T11:58:02.289Z,28.10
2018-08-23T12:00:30.419Z,28.10
2018-08-23T12:02:58.740Z,28.10
2018-08-23T12:05:26.999Z,27.90
2018-08-23T12:07:55.701Z,28.40
2018-08-23T12:10:24.873Z,28.80
2018-08-23T12:12:54.297Z,29.20
2018-08-23T12:15:31.731Z,29.50
2018-08-23T12:18:00.238Z,29.40
2018-08-23T12:20:28.467Z,29.40
2018-08-23T12:22:56.789Z,29.60
2018-08-23T12:25:25.114Z,29.10
2018-08-23T12:27:56.954Z,29.00
2018-08-23T12:30:25.303Z,28.80
2018-08-23T12:32:53.792Z,28.50
2018-08-23T12:35:22.192Z,27.80
2018-08-23T12:38:03.083Z,27.60
2018-08-23T12:40:37.173Z,27.10
2018-08-23T12:43:11.604Z,27.40
2018-08-23T12:45:41.943Z,27.40
2018-08-23T12:48:11.431Z,27.30
2018-08-23T12:50:40.094Z,27.70
2018-08-23T12:53:08.330Z,28.10
2018-08-23T12:55:36.554Z,28.60
2018-08-23T12:58:09.389Z,28.30
2018-08-23T13:00:38.354Z,27.50
2018-08-23T13:03:07.066Z,27.70
2018-08-23T13:05:35.914Z,27.60
2018-08-23T13:08:04.293Z,26.80
2018-08-23T13:10:32.566Z,27.10
2018-08-23T13:13:00.889Z,27.80
2018-08-23T13:15:29.119Z,28.10
2018-08-23T13:17:57.391Z,28.40
2018-08-23T13:20:25.595Z,28.40
2018-08-23T13:22:53.831Z,28.40
2018-08-23T13:25:22.167Z,28.20
2018-08-23T13:27:50.345Z,28.00
2018-08-23T13:30:18.557Z,27.90
2018-08-23T13:32:46.845Z,27.50
2018-08-23T13:35:15.068Z,26.90
2018-08-23T13:37:43.294Z,27.10
2018-08-23T13:40:18.788Z,27.60
2018-08-23T13:42:47.494Z,27.40
2018-08-23T13:45:15.982Z,27.50
2018-08-23T13:47:44.182Z,27.60
2018-08-23T13:50:12.507Z,26.90
2018-08-23T13:52:40.738Z,27.00
2018-08-23T13:55:08.907Z,26.60
2018-08-23T13:57:37.181Z,27.10
2018-08-23T14:00:05.408Z,27.00
2018-08-23T14:02:33.666Z,26.30
2018-08-23T14:05:01.928Z,26.40
2018-08-23T14:07:30.233Z,26.30
2018-08-23T14:09:58.357Z,26.20
2018-08-23T14:12:26.541Z,25.80
2018-08-23T14:14:57.162Z,25.30
2018-08-23T14:17:26.469Z,25.60
2018-08-23T14:19:55.561Z,25.30
2018-08-23T14:22:23.746Z,24.90
2018-08-23T14:24:51.982Z,25.10
2018-08-23T14:27:20.194Z,25.20
2018-08-23T14:29:48.541Z,25.20
2018-08-23T14:32:16.732Z,25.30
2018-08-23T14:34:44.978Z,25.20
2018-08-23T14:37:13.234Z,25.20
2018-08-23T14:39:41.514Z,24.90
2018-08-23T14:42:09.740Z,25.20
2018-08-23T14:44:38.117Z,24.90
2018-08-23T14:47:12.273Z,25.10
2018-08-23T14:49:40.488Z,24.60
2018-08-23T14:52:08.757Z,24.50
2018-08-23T14:54:41.557Z,24.50
2018-08-23T14:57:15.269Z,24.50
2018-08-23T14:59:44.157Z,24.60
2018-08-23T15:02:12.487Z,24.80
2018-08-23T15:04:44.986Z,24.70
2018-08-23T15:07:13.345Z,24.90
2018-08-23T15:09:42.090Z,24.90
2018-08-23T15:12:10.358Z,24.60
2018-08-23T15:14:38.615Z,25.30
2018-08-23T15:17:07.166Z,25.00
2018-08-23T15:19:35.402Z,24.90
2018-08-23T15:22:03.629Z,24.90
2018-08-23T15:24:31.889Z,25.10
2018-08-23T15:27:00.178Z,24.70
2018-08-23T15:29:28.428Z,24.60
2018-08-23T15:31:56.692Z,25.10
2018-08-23T15:34:25.002Z,25.10
2018-08-23T15:36:53.247Z,25.30
2018-08-23T15:39:21.496Z,25.20
2018-08-23T15:41:49.730Z,25.30
2018-08-23T15:44:17.983Z,25.60
2018-08-23T15:46:48.407Z,26.00
2018-08-23T15:49:17.043Z,26.10
2018-08-23T15:51:45.910Z,25.90
2018-08-23T15:54:18.054Z,26.60
2018-08-23T15:56:46.431Z,26.80
2018-08-23T15:59:14.850Z,27.30
2018-08-23T16:01:43.047Z,27.30
2018-08-23T16:04:11.745Z,27.30
2018-08-23T16:06:40.075Z,27.20
2018-08-23T16:09:10.814Z,28.80
2018-08-23T16:11:39.171Z,29.90
2018-08-23T16:14:07.708Z,30.00
2018-08-23T16:16:41.199Z,30.10
2018-08-23T16:19:16.669Z,30.60
2018-08-23T16:21:49.193Z,30.20
2018-08-23T16:24:17.473Z,29.60
2018-08-23T16:26:51.136Z,29.80
2018-08-23T16:29:19.315Z,28.90
2018-08-23T16:31:47.541Z,27.80
2018-08-23T16:34:15.955Z,27.60
2018-08-23T16:39:18.827Z,26.90
2018-08-23T16:41:47.089Z,26.90
2018-08-23T16:44:15.263Z,27.40
2018-08-23T16:46:43.493Z,27.50
2018-08-23T16:49:11.787Z,27.80
2018-08-23T16:51:40.194Z,28.10
2018-08-23T16:54:08.484Z,28.30
2018-08-23T16:56:36.730Z,28.50
2018-08-23T16:59:05.002Z,28.90
2018-08-23T17:01:33.280Z,28.40
2018-08-23T17:04:01.564Z,28.30
2018-08-23T17:06:29.860Z,28.20
2018-08-23T17:08:58.283Z,28.30
2018-08-23T17:11:26.502Z,28.10
2018-08-23T17:13:54.737Z,28.40
2018-08-23T17:16:28.277Z,28.70
2018-08-23T17:18:56.625Z,29.20
2018-08-23T17:21:24.898Z,30.10
2018-08-23T17:23:53.220Z,31.30
2018-08-23T17:26:21.493Z,32.00
2018-08-23T17:28:49.754Z,32.10
2018-08-23T17:31:18.032Z,32.10
2018-08-23T17:33:46.316Z,32.50
2018-08-23T17:36:14.600Z,32.70
2018-08-23T17:38:42.867Z,32.70
2018-08-23T17:41:11.052Z,33.10
2018-08-23T17:43:39.360Z,33.70
2018-08-23T17:46:07.582Z,34.00
2018-08-23T17:48:35.790Z,34.40
2018-08-23T17:51:04.015Z,35.40
2018-08-23T17:53:32.354Z,35.60
2018-08-23T17:56:00.578Z,38.10
2018-08-23T17:58:28.900Z,39.90
2018-08-23T18:00:57.192Z,39.80
2018-08-23T18:03:25.406Z,43.20
2018-08-23T18:05:53.710Z,45.80
2018-08-23T18:08:22.007Z,46.70
2018-08-23T18:10:50.422Z,46.80
2018-08-23T18:13:18.793Z,48.20
2018-08-23T18:15:52.400Z,48.10
2018-08-23T18:18:20.585Z,48.70
2018-08-23T18:20:48.785Z,49.50
2018-08-23T18:23:16.992Z,49.60
2018-08-23T18:25:45.235Z,49.40
2018-08-23T18:28:13.526Z,52.00
2018-08-23T18:30:41.791Z,52.00
2018-08-23T18:33:10.020Z,51.40
2018-08-23T18:35:38.709Z,51.00
2018-08-23T18:38:06.983Z,51.50
2018-08-23T18:40:35.201Z,53.30
2018-08-23T18:43:03.557Z,52.50
2018-08-23T18:45:31.836Z,53.60
2018-08-23T18:48:00.239Z,54.60
2018-08-23T18:50:28.561Z,55.60
2018-08-23T18:52:56.760Z,55.60
2018-08-23T18:55:24.966Z,55.20
2018-08-23T18:57:53.206Z,54.50
2018-08-23T19:00:21.515Z,54.50
2018-08-23T19:02:49.829Z,54.60
2018-08-23T19:05:18.362Z,54.50
2018-08-23T19:07:53.307Z,54.60
2018-08-23T19:10:21.498Z,53.80
2018-08-23T19:12:49.745Z,53.20
2018-08-23T19:15:23.213Z,53.30
2018-08-23T19:17:51.442Z,52.70
2018-08-23T19:20:20.337Z,52.20
2018-08-23T19:22:48.795Z,52.60
2018-08-23T19:25:17.121Z,52.90
2018-08-23T19:27:45.251Z,52.50
2018-08-23T19:30:13.543Z,52.70
2018-08-23T19:32:42.610Z,52.00
2018-08-23T19:35:10.863Z,52.40
2018-08-23T19:37:39.196Z,52.50
2018-08-23T19:40:07.479Z,52.70
2018-08-23T19:42:35.861Z,52.40
2018-08-23T19:45:04.064Z,52.50
2018-08-23T19:47:37.703Z,53.20
2018-08-23T19:50:10.647Z,53.00
2018-08-23T19:52:39.048Z,53.70
2018-08-23T19:55:08.933Z,53.10
2018-08-23T19:57:37.226Z,52.80
2018-08-23T20:00:06.640Z,53.20
2018-08-23T20:02:34.850Z,52.50
2018-08-23T20:05:03.126Z,52.70
2018-08-23T20:07:31.355Z,53.10
2018-08-23T20:09:59.683Z,53.60
2018-08-23T20:12:27.989Z,54.00
2018-08-23T20:14:56.225Z,53.90
2018-08-23T20:17:25.687Z,53.70
2018-08-23T20:19:54.020Z,53.50
2018-08-23T20:22:22.289Z,53.70
2018-08-23T20:24:50.560Z,54.20
2018-08-23T20:27:18.776Z,53.10
2018-08-23T20:29:47.045Z,53.60
2018-08-23T20:32:15.279Z,53.40
2018-08-23T20:34:43.463Z,53.70
2018-08-23T20:37:11.886Z,53.50
2018-08-23T20:39:40.149Z,53.60
2018-08-23T20:42:08.342Z,53.90
2018-08-23T20:44:36.534Z,53.80
2018-08-23T20:47:05.225Z,54.30
2018-08-23T20:49:33.354Z,55.00
2018-08-23T20:52:01.532Z,54.90
2018-08-23T20:54:29.872Z,54.90
2018-08-23T20:56:58.106Z,55.20
2018-08-23T20:59:26.361Z,55.30
2018-08-23T21:01:54.599Z,55.30
2018-08-23T21:04:22.863Z,55.20
2018-08-23T21:06:51.066Z,55.10
2018-08-23T21:09:19.319Z,55.40
2018-08-23T21:11:47.512Z,55.30
2018-08-23T21:14:15.687Z,55.20
2018-08-23T21:16:43.916Z,55.00
2018-08-23T21:19:12.365Z,55.10
2018-08-23T21:21:40.613Z,55.30
2018-08-23T21:24:08.928Z,55.40
2018-08-23T21:26:37.154Z,56.60
2018-08-23T21:29:05.377Z,56.70
2018-08-23T21:31:33.562Z,57.00
2018-08-23T21:34:01.781Z,57.00
2018-08-23T21:36:30.073Z,57.20
2018-08-23T21:38:58.269Z,57.60
2018-08-23T21:41:26.450Z,57.40
2018-08-23T21:43:54.636Z,57.40
2018-08-23T21:46:22.849Z,57.00
2018-08-23T21:48:51.090Z,56.90
2018-08-23T21:51:19.465Z,56.60
2018-08-23T21:53:48.053Z,56.50
2018-08-23T21:56:16.373Z,57.00
2018-08-23T21:58:44.623Z,57.00
2018-08-23T22:01:12.823Z,56.40
2018-08-23T22:03:41.148Z,56.40
2018-08-23T22:06:09.417Z,56.50
2018-08-23T22:08:37.651Z,56.40
2018-08-23T22:11:05.887Z,56.50
2018-08-23T22:13:34.134Z,56.40
2018-08-23T22:16:02.411Z,56.50
2018-08-23T22:18:30.582Z,56.40
2018-08-23T22:20:58.813Z,56.10
2018-08-23T22:23:27.663Z,56.20
2018-08-23T22:25:55.932Z,56.30
2018-08-23T22:28:24.207Z,56.20
2018-08-23T22:30:52.479Z,56.20
2018-08-23T22:33:20.709Z,56.30
2018-08-23T22:35:48.931Z,57.30
2018-08-23T22:38:23.713Z,56.60
2018-08-23T22:40:51.929Z,56.80
2018-08-23T22:43:20.211Z,57.50
2018-08-23T22:45:48.437Z,58.20
2018-08-23T22:48:16.667Z,59.10
2018-08-23T22:50:44.891Z,60.40
2018-08-23T22:53:13.107Z,60.30
2018-08-23T22:55:41.285Z,60.70
2018-08-23T22:58:09.563Z,61.80
2018-08-23T23:00:43.640Z,62.10
2018-08-23T23:03:17.038Z,62.00
2018-08-23T23:05:45.238Z,62.10
2018-08-23T23:08:13.484Z,62.20
2018-08-23T23:10:41.721Z,62.40
2018-08-23T23:13:09.906Z,63.00
2018-08-23T23:15:38.054Z,63.60
2018-08-23T23:18:12.730Z,63.80
2018-08-23T23:20:40.918Z,63.90
2018-08-23T23:23:09.149Z,64.10
2018-08-23T23:25:37.436Z,63.90
2018-08-23T23:28:05.666Z,63.90
2018-08-23T23:30:33.841Z,64.30
2018-08-23T23:33:02.092Z,64.50
2018-08-23T23:35:30.291Z,64.70
2018-08-23T23:37:58.508Z,65.10
2018-08-23T23:40:26.695Z,65.70
2018-08-23T23:42:54.957Z,65.40
2018-08-23T23:45:23.190Z,65.30
2018-08-23T23:47:51.407Z,65.10
2018-08-23T23:50:19.830Z,65.30
2018-08-23T23:52:48.047Z,65.60
2018-08-23T23:55:16.245Z,65.60
2018-08-23T23:57:44.494Z,65.80
